Time;durP1;ratioP1;P1;durP2;ratioP2;P2;SDS_P1;SDS_P2;PMS_P1;PMS_P2;Temp;Humidity;BMP_temperature;BMP_pressure;BME280_temperature;BME280_humidity;BME280_pressure;Samples;Min_cycle;Max_cycle;Signal;HPM_P1;HPM_P2
2021/12/25 00:01:13;;;;;;;4.68;2.50;;;;;;;21.13;20.56;98278.50;5096024;28;20051;-58
2021/12/25 00:03:38;;;;;;;3.55;2.35;;;;;;;21.11;20.80;98273.44;5091113;28;20040;-57
2021/12/25 00:06:04;;;;;;;3.70;2.50;;;;;;;21.11;20.55;98278.94;5090890;28;20032;-58
2021/12/25 00:08:31;;;;;;;3.42;2.45;;;;;;;21.11;20.55;98278.19;5110958;28;20041;-57
2021/12/25 00:10:57;;;;;;;3.63;2.42;;;;;;;21.10;20.51;98287.69;5100715;27;20032;-58
2021/12/25 00:13:23;;;;;;;4.13;2.55;;;;;;;21.11;20.46;98276.19;5072840;28;20035;-57
2021/12/25 00:15:48;;;;;;;4.20;2.80;;;;;;;21.13;20.48;98280.47;5090994;28;20039;-58
2021/12/25 00:18:14;;;;;;;3.30;2.60;;;;;;;21.12;20.54;98296.22;5089553;28;20119;-57
2021/12/25 00:20:40;;;;;;;3.60;2.72;;;;;;;21.09;20.51;98288.91;5090711;28;20060;-58
2021/12/25 00:23:07;;;;;;;3.97;2.75;;;;;;;21.09;20.69;98281.41;5092984;28;20040;-57
2021/12/25 00:25:36;;;;;;;3.47;2.50;;;;;;;21.09;20.79;98281.41;5082241;28;20035;-58
2021/12/25 00:35:59;;;;;;;4.00;2.75;;;;;;;21.11;20.58;98300.94;5094469;28;20028;-58
2021/12/25 00:38:24;;;;;;;4.13;2.63;;;;;;;21.11;20.64;98294.69;5113924;27;20038;-56
2021/12/25 00:40:50;;;;;;;3.45;2.60;;;;;;;21.10;20.39;98298.66;5110643;27;20067;-57
2021/12/25 00:43:15;;;;;;;4.13;2.67;;;;;;;21.11;20.69;98300.19;5094498;28;20040;-56
2021/12/25 00:45:41;;;;;;;4.35;2.92;;;;;;;21.11;20.73;98300.19;5094394;28;20032;-57
2021/12/25 00:48:06;;;;;;;5.05;3.15;;;;;;;21.09;20.45;98297.16;5097250;28;20468;-58
2021/12/25 00:50:32;;;;;;;3.97;2.92;;;;;;;21.10;20.62;98298.66;5114800;28;20434;-55
2021/12/25 00:52:57;;;;;;;4.63;2.92;;;;;;;21.09;20.64;98302.66;5114456;28;20434;-58
2021/12/25 00:55:23;;;;;;;4.75;2.80;;;;;;;21.04;20.69;98297.81;5113501;28;20111;-57
2021/12/25 00:57:48;;;;;;;4.07;2.78;;;;;;;21.10;20.61;98306.91;5111840;28;20039;-57
2021/12/25 01:00:14;;;;;;;3.80;2.55;;;;;;;21.10;20.55;98309.66;5126314;27;20031;-56
2021/12/25 01:02:41;;;;;;;4.30;2.72;;;;;;;21.10;20.52;98309.66;5134778;27;20030;-58
2021/12/25 01:05:08;;;;;;;4.20;2.88;;;;;;;21.10;20.32;98310.44;5135573;27;20027;-57
2021/12/25 01:07:33;;;;;;;4.68;3.15;;;;;;;21.10;20.49;98318.69;5134988;27;20028;-59
2021/12/25 01:10:02;;;;;;;4.22;3.10;;;;;;;21.10;20.35;98318.69;5096452;27;20101;-58
2021/12/25 01:12:31;;;;;;;4.13;3.00;;;;;;;21.11;20.48;98322.94;5091666;28;20040;-58
2021/12/25 01:14:59;;;;;;;4.70;2.90;;;;;;;21.11;20.43;98313.94;5094443;28;20032;-58
2021/12/25 01:18:06;;;;;;;4.22;2.95;;;;;;;21.10;20.44;98323.41;5094060;28;20463;-58
2021/12/25 01:38:59;;;;;;;4.45;3.15;;;;;;;21.09;20.39;98332.91;5103499;27;20067;-59
2021/12/25 01:49:22;;;;;;;4.28;2.95;;;;;;;21.08;20.33;98325.88;5093187;28;20032;-58
2021/12/25 01:51:47;;;;;;;5.15;3.08;;;;;;;21.09;20.30;98324.66;5093616;28;20435;-56
2021/12/25 01:54:13;;;;;;;4.25;2.92;;;;;;;21.09;20.28;98328.16;5092970;28;20032;-57
2021/12/25 01:56:38;;;;;;;4.88;3.28;;;;;;;21.09;20.33;98328.16;5093254;28;20066;-57
2021/12/25 01:59:04;;;;;;;4.07;2.60;;;;;;;21.09;20.39;98328.16;5102824;27;20031;-58
2021/12/25 02:01:29;;;;;;;3.92;3.00;;;;;;;21.09;20.26;98332.91;5133940;27;20043;-58
2021/12/25 02:03:55;;;;;;;3.90;2.70;;;;;;;21.09;20.33;98341.16;5128509;27;20031;-58
2021/12/25 02:06:21;;;;;;;3.75;2.80;;;;;;;21.09;20.29;98343.91;5092145;28;20028;-58
2021/12/25 02:08:46;;;;;;;4.40;2.90;;;;;;;21.08;20.30;98348.63;5103725;27;20498;-58
2021/12/25 02:11:12;;;;;;;4.53;2.85;;;;;;;21.11;20.19;98349.69;5092919;28;20043;-58
2021/12/25 02:13:42;;;;;;;5.13;3.03;;;;;;;21.10;20.12;98357.16;5092860;28;20031;-58
2021/12/25 02:16:13;;;;;;;4.60;2.80;;;;;;;21.09;20.25;98355.66;5093089;28;20035;-57
2021/12/25 02:18:59;;;;;;;3.70;2.70;;;;;;;21.10;20.17;98359.91;5095647;28;20145;-59
2021/12/25 02:21:31;;;;;;;4.38;2.80;;;;;;;21.10;20.24;98365.41;5106560;28;20118;-58
2021/12/25 02:23:57;;;;;;;4.88;2.97;;;;;;;21.10;20.12;98370.16;5112445;28;20042;-57
2021/12/25 02:26:24;;;;;;;3.97;2.70;;;;;;;21.07;20.16;98366.34;5113423;28;20412;-56
2021/12/25 02:28:50;;;;;;;4.72;3.15;;;;;;;21.09;20.26;98374.91;5112589;27;20074;-59
2021/12/25 02:31:16;;;;;;;4.20;2.75;;;;;;;21.09;20.17;98371.38;5133652;27;20098;-58
2021/12/25 02:33:41;;;;;;;3.83;2.65;;;;;;;21.09;20.03;98377.66;5133577;27;20042;-59
2021/12/25 02:36:08;;;;;;;4.07;3.00;;;;;;;21.08;20.15;98378.88;5106310;27;20031;-59
2021/12/25 02:38:34;;;;;;;4.85;2.75;;;;;;;21.10;19.96;98383.91;5107028;27;20040;-56
2021/12/25 02:40:59;;;;;;;3.50;2.67;;;;;;;21.09;20.06;98383.16;5092224;28;20115;-57
2021/12/25 02:43:25;;;;;;;3.85;2.60;;;;;;;21.09;20.07;98380.41;5092329;28;20078;-56
2021/12/25 02:45:55;;;;;;;4.18;2.83;;;;;;;21.10;19.93;98390.16;5090982;28;20048;-56
2021/12/25 02:48:21;;;;;;;3.92;2.70;;;;;;;21.12;20.06;98392.44;5092025;28;20126;-58
2021/12/25 02:50:46;;;;;;;4.18;2.67;;;;;;;21.08;20.00;98391.88;5091708;28;20131;-58
2021/12/25 02:53:12;;;;;;;3.80;2.53;;;;;;;21.09;19.97;98391.41;5092148;28;20032;-59
2021/12/25 02:55:38;;;;;;;4.32;2.67;;;;;;;21.10;19.99;98401.16;5091690;28;20035;-58
2021/12/25 02:58:04;;;;;;;4.00;2.78;;;;;;;21.08;20.01;98406.38;5092148;28;20432;-59
2021/12/25 03:00:36;;;;;;;4.28;2.60;;;;;;;21.09;20.07;98402.41;5125517;27;20035;-57
2021/12/25 03:03:03;;;;;;;4.25;2.53;;;;;;;21.09;20.02;98401.63;5108281;27;20039;-58
2021/12/25 03:05:29;;;;;;;4.30;2.63;;;;;;;21.08;19.96;98402.88;5112197;28;20562;-57
2021/12/25 03:07:54;;;;;;;4.00;2.83;;;;;;;21.07;19.91;98415.84;5117323;27;20034;-57
2021/12/25 03:10:20;;;;;;;4.07;2.63;;;;;;;21.07;19.97;98407.59;5099312;27;20036;-56
2021/12/25 03:13:33;;;;;;;4.13;2.88;;;;;;;21.09;19.68;98404.38;5091909;28;20085;-58
2021/12/25 03:15:45;;;;;;;3.72;2.50;;;;;;;21.09;19.83;98413.38;5090798;28;20714;-58
2021/12/25 03:18:14;;;;;;;3.88;2.53;;;;;;;21.10;19.79;98412.16;5090404;28;20126;-58
2021/12/25 03:20:44;;;;;;;4.45;2.60;;;;;;;21.08;19.75;98411.88;5091857;28;20058;-58
2021/12/25 03:23:20;;;;;;;3.90;2.42;;;;;;;21.08;19.81;98414.63;5091497;28;20467;-58
2021/12/25 03:25:46;;;;;;;4.07;2.50;;;;;;;21.11;19.91;98415.69;5091827;28;20032;-58
2021/12/25 03:28:12;;;;;;;3.20;2.40;;;;;;;21.08;19.80;98409.13;5091628;28;20036;-57
2021/12/25 03:30:39;;;;;;;3.53;2.30;;;;;;;21.08;19.72;98413.84;5094713;28;20063;-57
2021/12/25 03:33:11;;;;;;;4.22;2.45;;;;;;;21.08;19.86;98414.63;5111248;28;20080;-58
2021/12/25 03:35:36;;;;;;;3.00;2.13;;;;;;;21.09;19.52;98421.63;5112070;28;20462;-58
2021/12/25 03:38:03;;;;;;;3.40;2.33;;;;;;;21.09;19.57;98420.88;5117510;27;20136;-58
2021/12/25 03:40:29;;;;;;;3.50;2.20;;;;;;;21.08;19.62;98414.63;5099005;27;20538;-58
2021/12/25 03:42:54;;;;;;;3.33;2.30;;;;;;;21.08;19.53;98420.13;5091609;28;20032;-55
2021/12/25 03:45:20;;;;;;;3.50;2.30;;;;;;;21.08;19.71;98425.63;5091583;28;20067;-57
2021/12/25 03:47:47;;;;;;;3.63;2.22;;;;;;;21.09;19.68;98431.88;5090892;28;20031;-56
2021/12/25 03:53:10;;;;;;;3.05;2.08;;;;;;;21.07;19.38;98426.84;5091234;28;20043;-58
2021/12/25 03:58:26;;;;;;;3.85;2.22;;;;;;;21.08;19.53;98431.13;5094159;28;20139;-58
2021/12/25 04:00:59;;;;;;;4.13;2.23;;;;;;;21.09;19.45;98429.13;5122324;28;20046;-57
2021/12/25 04:03:39;;;;;;;2.78;2.17;;;;;;;21.08;19.59;98427.59;5114344;27;20043;-56
2021/12/25 04:06:08;;;;;;;3.28;2.10;;;;;;;21.07;19.48;98435.09;5091248;28;20043;-57
2021/12/25 04:08:40;;;;;;;3.20;2.00;;;;;;;21.07;19.48;98448.09;5112284;28;20402;-56
2021/12/25 04:11:12;;;;;;;3.22;2.10;;;;;;;21.05;19.52;98453.28;5092720;27;20096;-56
2021/12/25 04:13:38;;;;;;;2.97;2.10;;;;;;;21.06;19.55;98461.06;5090934;28;20032;-57
2021/12/25 04:16:03;;;;;;;3.20;2.17;;;;;;;21.07;19.58;98459.84;5090698;28;20077;-58
2021/12/25 04:18:29;;;;;;;2.65;1.75;;;;;;;21.06;19.35;98461.06;5090488;28;20063;-56
2021/12/25 04:20:55;;;;;;;3.08;1.98;;;;;;;21.06;19.26;98458.31;5090525;28;20476;-56
2021/12/25 04:23:25;;;;;;;3.33;2.17;;;;;;;21.06;19.37;98463.06;5090847;28;20067;-58
2021/12/25 04:25:53;;;;;;;3.30;2.20;;;;;;;21.05;19.43;98453.28;5091041;28;20476;-58
2021/12/25 04:28:43;;;;;;;3.80;2.08;;;;;;;21.08;19.23;98460.59;5088854;28;20059;-58
2021/12/25 04:47:47;;;;;;;3.33;2.08;;;;;;;21.07;19.46;98498.34;5090605;28;20085;-58
2021/12/25 05:03:55;;;;;;;2.80;1.80;;;;;;;21.08;19.17;98516.34;5130601;28;20118;-58
2021/12/25 05:06:23;;;;;;;2.60;1.85;;;;;;;21.07;19.25;98514.84;5121735;27;20040;-58
2021/12/25 05:08:50;;;;;;;2.80;1.90;;;;;;;21.09;19.14;98523.38;5103149;27;20032;-58
2021/12/25 05:11:16;;;;;;;3.22;2.03;;;;;;;21.09;18.85;98515.13;5075124;28;20043;-58
2021/12/25 05:13:43;;;;;;;3.10;2.00;;;;;;;21.08;18.98;98513.59;5094440;28;20032;-56
2021/12/25 05:16:09;;;;;;;3.05;1.90;;;;;;;21.08;19.00;98521.84;5094585;28;20441;-58
2021/12/25 05:18:34;;;;;;;2.70;1.70;;;;;;;21.09;19.21;98531.63;5093968;28;20055;-60
2021/12/25 05:21:00;;;;;;;2.83;1.80;;;;;;;21.09;18.82;98528.88;5093021;28;20032;-58
2021/12/25 05:23:26;;;;;;;2.70;1.83;;;;;;;21.09;18.85;98542.63;5094364;28;20035;-59
2021/12/25 05:25:51;;;;;;;2.78;1.88;;;;;;;21.09;18.94;98539.88;5094266;28;20042;-58
2021/12/25 05:28:24;;;;;;;3.45;2.08;;;;;;;21.07;18.92;98531.31;5093704;28;20046;-58
2021/12/25 05:30:49;;;;;;;3.05;1.75;;;;;;;21.06;19.04;98527.06;5122874;27;20046;-58
2021/12/25 05:33:15;;;;;;;2.78;1.92;;;;;;;21.07;18.90;98528.56;5134920;27;20039;-57
2021/12/25 05:35:42;;;;;;;2.58;1.63;;;;;;;21.08;18.76;98532.09;5117368;27;20537;-57
2021/12/25 05:38:13;;;;;;;2.83;1.70;;;;;;;21.04;18.82;98531.50;5098989;27;20036;-58
2021/12/25 05:40:39;;;;;;;2.42;1.70;;;;;;;21.07;18.79;98536.06;5092486;28;20400;-58
2021/12/25 05:43:04;;;;;;;3.15;1.95;;;;;;;21.09;18.70;98544.59;5093666;28;20036;-58
2021/12/25 05:45:30;;;;;;;3.33;2.08;;;;;;;21.08;18.76;98549.34;5094103;28;20389;-56
2021/12/25 05:47:56;;;;;;;2.90;2.00;;;;;;;21.08;18.88;98551.34;5093727;28;20131;-57
2021/12/25 05:50:22;;;;;;;2.70;1.67;;;;;;;21.05;18.78;98553.03;5092429;28;20044;-58
2021/12/25 05:52:47;;;;;;;2.65;1.80;;;;;;;21.08;18.89;98554.09;5094605;28;20389;-56
2021/12/25 05:55:13;;;;;;;2.35;1.50;;;;;;;21.07;18.71;98558.81;5111569;27;20038;-58
2021/12/25 05:57:39;;;;;;;2.20;1.52;;;;;;;21.09;18.57;98566.59;5112271;28;20072;-58
2021/12/25 06:00:06;;;;;;;3.05;1.70;;;;;;;21.08;18.69;98562.34;5119984;27;20081;-57
2021/12/25 06:02:31;;;;;;;2.33;1.60;;;;;;;21.07;18.65;98558.81;5131738;27;20035;-58
2021/12/25 06:04:57;;;;;;;2.30;1.70;;;;;;;21.00;18.79;98547.38;5110147;27;20140;-57
2021/12/25 06:07:23;;;;;;;2.60;1.60;;;;;;;21.08;18.74;98565.09;5110948;27;20407;-58
2021/12/25 06:09:48;;;;;;;2.88;1.90;;;;;;;21.09;18.46;98572.09;5095314;27;20388;-57
2021/12/25 06:12:14;;;;;;;2.30;1.70;;;;;;;21.08;18.60;98570.59;5094303;28;20048;-58
2021/12/25 06:14:41;;;;;;;2.78;1.63;;;;;;;21.09;18.57;98569.34;5108973;28;20453;-56
2021/12/25 06:17:07;;;;;;;2.22;1.63;;;;;;;21.09;18.65;98572.88;5110833;28;20032;-57
2021/12/25 06:19:32;;;;;;;2.72;1.58;;;;;;;21.08;18.87;98576.84;5110207;28;20035;-57
2021/12/25 06:21:58;;;;;;;2.60;1.77;;;;;;;21.06;18.59;98576.53;5090029;28;20085;-56
2021/12/25 06:24:25;;;;;;;2.58;1.60;;;;;;;21.07;18.53;98583.56;5091014;28;20032;-57
2021/12/25 06:26:51;;;;;;;2.78;1.70;;;;;;;21.09;18.75;98586.63;5099264;28;20085;-57
2021/12/25 06:29:19;;;;;;;2.97;1.95;;;;;;;21.09;18.46;98583.09;5103338;27;20019;-56
2021/12/25 06:31:45;;;;;;;3.33;1.80;;;;;;;21.08;18.71;98596.09;5130412;27;20458;-57
2021/12/25 06:34:11;;;;;;;2.53;1.65;;;;;;;21.09;18.48;98596.84;5132089;27;20398;-58
2021/12/25 06:36:36;;;;;;;2.42;1.52;;;;;;;21.08;18.30;98596.09;5093994;28;20028;-57
2021/12/25 06:39:03;;;;;;;2.55;1.75;;;;;;;21.07;18.53;98597.31;5107299;27;20035;-57
2021/12/25 06:41:29;;;;;;;2.60;1.63;;;;;;;21.07;18.51;98597.31;5090589;28;20031;-57
2021/12/25 06:43:54;;;;;;;2.40;1.60;;;;;;;21.08;18.38;98614.56;5091704;28;20059;-56
2021/12/25 06:46:20;;;;;;;2.63;1.70;;;;;;;21.08;18.45;98603.56;5091205;28;20114;-57
2021/12/25 06:48:45;;;;;;;2.65;1.70;;;;;;;21.07;18.44;98608.31;5104897;28;20028;-56
2021/12/25 06:51:11;;;;;;;2.97;1.80;;;;;;;21.07;18.40;98613.06;5111537;28;20545;-58
2021/12/25 06:53:39;;;;;;;2.53;1.50;;;;;;;21.06;18.27;98617.03;5110756;28;20039;-58
2021/12/25 06:56:04;;;;;;;2.55;1.75;;;;;;;21.06;18.52;98620.53;5112694;28;20039;-58
2021/12/25 06:58:30;;;;;;;2.90;1.70;;;;;;;21.07;18.56;98624.06;5094397;28;20032;-58
2021/12/25 07:00:55;;;;;;;2.33;1.60;;;;;;;21.07;18.59;98635.81;5129190;27;20078;-58
2021/12/25 07:03:21;;;;;;;2.70;1.67;;;;;;;21.06;18.37;98626.03;5108180;27;20364;-56
2021/12/25 07:05:47;;;;;;;2.35;1.70;;;;;;;21.06;18.42;98626.03;5095304;27;20088;-57
2021/12/25 07:08:13;;;;;;;2.25;1.70;;;;;;;21.06;18.39;98628.78;5097592;28;20035;-57
2021/12/25 07:10:38;;;;;;;2.42;1.70;;;;;;;21.06;18.37;98633.53;5101885;28;20119;-59
2021/12/25 07:13:05;;;;;;;2.55;1.70;;;;;;;21.06;18.21;98634.28;5098755;28;20035;-57
2021/12/25 07:15:30;;;;;;;2.70;1.75;;;;;;;21.05;18.40;98632.75;5099617;27;20035;-57
2021/12/25 07:17:56;;;;;;;2.35;1.60;;;;;;;21.04;18.17;98631.25;5105328;27;20042;-58
2021/12/25 07:20:21;;;;;;;4.70;1.63;;;;;;;21.07;18.37;98637.81;5096845;27;20028;-57
2021/12/25 07:22:47;;;;;;;2.63;1.80;;;;;;;21.04;18.15;98636.75;5092863;28;20047;-56
2021/12/25 07:25:12;;;;;;;2.40;1.60;;;;;;;21.05;18.22;98654.00;5090942;28;20028;-56
2021/12/25 07:27:38;;;;;;;3.03;1.90;;;;;;;21.06;18.17;98644.53;5105466;27;20027;-56
2021/12/25 07:30:07;;;;;;;2.70;1.70;;;;;;;21.06;18.28;98642.53;5098675;28;20051;-56
2021/12/25 07:32:32;;;;;;;2.28;1.60;;;;;;;21.05;18.15;98643.75;5090627;28;20067;-57
2021/12/25 07:34:58;;;;;;;2.85;1.70;;;;;;;21.04;18.11;98653.22;5096876;28;20063;-58
2021/12/25 07:37:23;;;;;;;3.33;1.80;;;;;;;21.05;18.25;98652.00;5102108;27;20031;-58
2021/12/25 07:39:50;;;;;;;3.05;1.80;;;;;;;21.04;18.14;98653.22;5110232;27;20085;-57
2021/12/25 07:42:15;;;;;;;2.13;1.50;;;;;;;21.05;17.99;98648.50;5096912;28;20504;-58
2021/12/25 07:44:42;;;;;;;2.25;1.60;;;;;;;21.04;18.13;98647.75;5096129;28;20067;-58
2021/12/25 07:47:11;;;;;;;2.72;1.70;;;;;;;21.04;18.14;98661.47;5100436;28;20489;-56
2021/12/25 07:49:36;;;;;;;3.05;1.90;;;;;;;21.05;18.24;98656.75;5096046;27;20039;-58
2021/12/25 07:52:03;;;;;;;2.65;1.80;;;;;;;21.05;17.92;98654.00;5094817;28;20120;-58
2021/12/25 07:54:29;;;;;;;2.53;1.75;;;;;;;20.95;18.13;98649.72;5101099;28;20042;-57
2021/12/25 07:56:54;;;;;;;2.20;1.58;;;;;;;21.03;18.00;98659.94;5104249;28;20027;-60
2021/12/25 07:59:20;;;;;;;2.80;1.90;;;;;;;21.04;18.08;98669.72;5111118;28;20487;-57
2021/12/25 08:01:46;;;;;;;2.50;1.63;;;;;;;21.02;18.03;98669.41;5104108;27;20138;-56
2021/12/25 08:04:11;;;;;;;2.67;1.80;;;;;;;21.02;17.87;98661.16;5097014;28;20023;-55
2021/12/25 08:06:38;;;;;;;2.13;1.58;;;;;;;21.02;17.88;98654.91;5105184;28;20027;-55
2021/12/25 08:09:04;;;;;;;2.30;1.63;;;;;;;21.00;17.93;98652.59;5113679;28;20062;-58
2021/12/25 08:11:30;;;;;;;2.50;1.90;;;;;;;21.03;17.84;98672.91;5099820;28;20395;-57
2021/12/25 08:13:56;;;;;;;2.88;1.83;;;;;;;21.04;17.96;98677.97;5103911;28;20675;-58
2021/12/25 08:16:21;;;;;;;2.80;1.83;;;;;;;21.04;18.01;98674.47;5103421;28;20123;-57
2021/12/25 08:18:47;;;;;;;3.60;1.90;;;;;;;21.03;17.94;98676.44;5106505;28;20456;-57
2021/12/25 08:21:13;;;;;;;2.80;1.90;;;;;;;21.02;18.03;98679.63;5101949;28;20387;-57
2021/12/25 08:23:39;;;;;;;2.65;1.70;;;;;;;21.03;17.93;98681.94;5105619;27;20081;-56
2021/12/25 08:26:04;;;;;;;2.88;1.92;;;;;;;21.03;17.99;98681.94;5097777;28;20114;-58
2021/12/25 08:28:30;;;;;;;2.90;1.83;;;;;;;21.03;17.79;98690.16;5100811;28;20039;-56
2021/12/25 08:30:56;;;;;;;3.03;1.80;;;;;;;21.04;17.83;98694.47;5107009;28;20042;-58
2021/12/25 08:33:21;;;;;;;3.03;1.90;;;;;;;21.04;17.79;98690.97;5105044;28;20395;-58
2021/12/25 08:35:47;;;;;;;3.03;1.92;;;;;;;21.04;17.99;98686.22;5106203;28;20027;-57
2021/12/25 08:38:12;;;;;;;2.78;1.90;;;;;;;21.02;17.83;98690.63;5111054;28;20176;-57
2021/12/25 08:40:39;;;;;;;2.88;2.25;;;;;;;21.02;17.80;98694.16;5099135;28;20024;-57
2021/12/25 08:43:05;;;;;;;2.90;2.10;;;;;;;21.02;17.80;98691.41;5107213;28;20046;-56
2021/12/25 08:48:03;;;;;;;2.78;2.05;;;;;;;21.01;17.65;98692.63;5105492;28;20031;-57
2021/12/25 08:50:28;;;;;;;2.83;1.90;;;;;;;21.03;17.89;98697.66;5099256;27;20381;-56
2021/12/25 08:52:54;;;;;;;2.97;2.30;;;;;;;21.03;17.90;98697.66;5108124;27;20035;-57
2021/12/25 08:55:20;;;;;;;2.40;1.90;;;;;;;21.02;17.63;98701.63;5083804;28;20137;-58
2021/12/25 08:57:45;;;;;;;3.08;2.10;;;;;;;21.02;17.71;98710.66;5098583;28;20530;-56
2021/12/25 09:00:11;;;;;;;3.53;2.13;;;;;;;21.03;17.63;98711.41;5115409;27;20046;-56
2021/12/25 09:02:37;;;;;;;3.58;2.08;;;;;;;21.05;17.66;98706.25;5101598;27;20070;-55
2021/12/25 09:05:03;;;;;;;3.00;2.10;;;;;;;21.01;17.68;98711.09;5101299;28;20498;-57
2021/12/25 09:07:29;;;;;;;3.03;2.10;;;;;;;21.01;17.74;98714.63;5100953;27;20035;-58
2021/12/25 09:09:55;;;;;;;3.55;2.00;;;;;;;21.02;17.57;98718.13;5107047;27;20089;-56
2021/12/25 09:12:22;;;;;;;2.90;2.08;;;;;;;21.02;17.65;98718.13;5106374;27;20437;-57
2021/12/25 09:14:47;;;;;;;3.63;2.20;;;;;;;21.04;17.69;98719.22;5107039;28;20035;-57
2021/12/25 09:17:13;;;;;;;4.35;2.55;;;;;;;21.02;17.57;98716.16;5093603;27;20377;-58
2021/12/25 09:19:38;;;;;;;3.33;2.22;;;;;;;21.02;17.65;98715.38;5095040;28;20047;-58
2021/12/25 09:22:04;;;;;;;3.35;2.22;;;;;;;21.03;17.73;98717.66;5102478;28;20050;-57
2021/12/25 09:24:29;;;;;;;2.65;1.90;;;;;;;21.04;17.70;98713.72;5099500;27;20058;-58
2021/12/25 09:26:55;;;;;;;3.00;2.30;;;;;;;21.03;17.75;98712.16;5096014;28;20035;-56
2021/12/25 09:29:20;;;;;;;3.28;2.15;;;;;;;21.03;17.42;98705.91;5108016;27;20036;-57
2021/12/25 09:31:46;;;;;;;3.30;2.10;;;;;;;21.01;17.73;98714.63;5101139;27;20478;-56
2021/12/25 09:34:11;;;;;;;2.88;2.13;;;;;;;21.02;17.71;98705.16;5093630;27;20177;-58
2021/12/25 09:36:37;;;;;;;3.13;2.25;;;;;;;21.03;17.75;98709.41;5093108;28;20032;-57
2021/12/25 09:39:03;;;;;;;3.20;2.13;;;;;;;21.02;17.61;98707.91;5101005;27;20036;-57
2021/12/25 09:41:29;;;;;;;3.38;2.50;;;;;;;21.02;17.70;98712.63;5083558;28;20028;-57
2021/12/25 09:43:55;;;;;;;3.10;2.17;;;;;;;21.04;17.48;98712.97;5104462;27;20172;-57
2021/12/25 09:46:21;;;;;;;3.33;2.40;;;;;;;21.03;17.54;98716.91;5108700;28;20386;-58
2021/12/25 09:48:47;;;;;;;3.40;2.40;;;;;;;21.03;17.54;98712.16;5101545;28;20112;-56
2021/12/25 09:51:13;;;;;;;3.17;2.38;;;;;;;21.05;17.51;98715.25;5096722;28;20479;-58
2021/12/25 09:53:39;;;;;;;3.42;2.38;;;;;;;21.05;17.41;98711.75;5104953;28;20043;-58
2021/12/25 09:56:05;;;;;;;3.50;2.45;;;;;;;21.04;17.51;98719.22;5095583;28;20063;-56
2021/12/25 09:58:30;;;;;;;3.55;2.45;;;;;;;21.01;17.65;98711.09;5099310;28;20067;-57
2021/12/25 10:00:57;;;;;;;3.20;2.33;;;;;;;21.04;17.67;98716.47;5115680;27;20032;-57
2021/12/25 10:03:39;;;;;;;3.13;2.45;;;;;;;21.04;17.53;98716.47;5099440;28;20383;-57
2021/12/25 10:06:05;;;;;;;3.80;2.30;;;;;;;21.03;17.64;98717.66;5096255;28;20089;-58
2021/12/25 10:08:30;;;;;;;3.25;2.42;;;;;;;21.03;17.51;98720.41;5101141;28;20040;-55
2021/12/25 10:11:00;;;;;;;3.30;2.47;;;;;;;21.04;17.31;98718.47;5100750;28;20453;-56
2021/12/25 10:13:28;;;;;;;3.42;2.30;;;;;;;21.03;17.51;98720.41;5102912;27;20445;-57
2021/12/25 10:16:01;;;;;;;3.45;2.22;;;;;;;21.02;17.51;98716.16;5100676;28;20046;-57
2021/12/25 10:18:31;;;;;;;3.20;2.30;;;;;;;21.05;17.50;98711.75;5103895;28;20042;-58
2021/12/25 10:20:56;;;;;;;3.33;2.55;;;;;;;21.03;17.44;98714.91;5094207;28;20032;-58
2021/12/25 10:23:28;;;;;;;3.83;2.78;;;;;;;21.04;17.45;98716.47;5105378;27;20130;-57
2021/12/25 10:25:58;;;;;;;4.07;2.72;;;;;;;21.05;17.30;98717.25;5099108;28;20032;-58
2021/12/25 10:28:31;;;;;;;3.33;2.50;;;;;;;21.04;17.38;98710.97;5091559;28;20032;-58
2021/12/25 10:30:59;;;;;;;3.30;2.50;;;;;;;21.04;17.61;98712.97;5110280;27;20034;-57
2021/12/25 10:33:51;;;;;;;3.60;2.67;;;;;;;21.06;17.44;98719.53;5119628;27;20050;-57
2021/12/25 10:36:24;;;;;;;3.22;2.65;;;;;;;21.06;17.47;98722.28;5095133;28;20061;-55
2021/12/25 10:38:58;;;;;;;3.30;2.53;;;;;;;21.07;17.38;98726.56;5101393;27;20027;-58
2021/12/25 10:41:23;;;;;;;3.45;2.58;;;;;;;21.06;17.37;98718.75;5100150;28;20069;-58
2021/12/25 10:43:52;;;;;;;3.85;2.83;;;;;;;21.05;17.43;98715.25;5097241;27;20032;-57
2021/12/25 10:46:18;;;;;;;3.63;2.70;;;;;;;21.06;17.47;98724.25;5098529;28;20032;-57
2021/12/25 10:48:44;;;;;;;3.78;2.63;;;;;;;21.05;17.53;98707.00;5108948;28;20036;-57
2021/12/25 10:51:23;;;;;;;4.10;2.85;;;;;;;21.08;17.21;98719.06;5094972;28;20036;-57
2021/12/25 10:53:54;;;;;;;3.40;2.67;;;;;;;21.07;17.43;98721.06;5110993;28;20510;-57
2021/12/25 10:56:20;;;;;;;3.65;2.72;;;;;;;21.06;17.51;98719.53;5106623;28;20543;-59
2021/12/25 10:58:46;;;;;;;3.75;2.70;;;;;;;21.06;17.37;98719.53;5094681;28;20035;-57
2021/12/25 11:01:14;;;;;;;3.92;2.90;;;;;;;21.06;17.37;98719.53;5108322;27;20509;-56
2021/12/25 11:03:41;;;;;;;3.35;2.70;;;;;;;21.05;17.28;98718.00;5113442;27;20440;-57
2021/12/25 11:06:09;;;;;;;3.85;2.90;;;;;;;21.06;17.38;98721.50;5104200;27;20039;-59
2021/12/25 11:08:35;;;;;;;3.72;2.80;;;;;;;21.05;17.46;98723.50;5099861;28;20500;-59
2021/12/25 11:11:08;;;;;;;4.10;3.00;;;;;;;21.05;17.53;98728.22;5108516;28;20071;-57
2021/12/25 11:13:43;;;;;;;4.57;3.22;;;;;;;21.06;17.47;98730.53;5089776;28;20126;-57
2021/12/25 11:16:11;;;;;;;3.45;2.90;;;;;;;21.05;17.37;98734.50;5089849;28;20039;-56
2021/12/25 11:21:36;;;;;;;4.00;2.90;;;;;;;21.05;17.13;98736.47;5089501;28;20032;-57
2021/12/25 11:24:09;;;;;;;4.28;3.10;;;;;;;21.05;17.30;98740.00;5090110;28;20483;-57
2021/12/25 11:26:36;;;;;;;4.25;2.97;;;;;;;21.04;17.61;98734.97;5099138;28;20043;-58
2021/12/25 11:29:02;;;;;;;4.28;3.30;;;;;;;21.04;17.41;98741.22;5101545;28;20039;-57
2021/12/25 11:31:30;;;;;;;4.45;3.22;;;;;;;21.04;17.39;98738.47;5125775;27;20050;-59
2021/12/25 11:33:56;;;;;;;4.07;3.05;;;;;;;21.05;17.30;98747.47;5131323;27;20035;-58
2021/12/25 11:36:21;;;;;;;3.90;2.90;;;;;;;21.03;17.41;98747.91;5113094;27;20359;-58
2021/12/25 11:38:47;;;;;;;4.30;3.13;;;;;;;21.04;17.26;98751.44;5113310;27;20042;-56
2021/12/25 11:41:13;;;;;;;4.15;3.13;;;;;;;21.03;17.47;98749.91;5092791;28;20035;-58
2021/12/25 11:43:41;;;;;;;4.90;3.28;;;;;;;21.02;17.31;98759.38;5120734;27;20078;-58
2021/12/25 11:46:07;;;;;;;4.10;3.20;;;;;;;21.03;17.22;98758.91;5094762;27;20039;-58
2021/12/25 11:48:33;;;;;;;4.20;3.30;;;;;;;21.04;17.33;98745.94;5110128;28;20035;-57
2021/12/25 11:50:59;;;;;;;3.85;3.45;;;;;;;21.03;17.43;98755.41;5106852;28;20392;-59
2021/12/25 11:56:39;;;;;;;4.05;3.25;;;;;;;21.04;17.35;98759.69;5056939;28;20059;-58
2021/12/25 11:59:13;;;;;;;4.25;2.92;;;;;;;21.05;17.37;98748.25;5091201;28;20059;-57
2021/12/25 12:01:48;;;;;;;3.92;3.25;;;;;;;21.04;17.35;98749.47;5130464;27;20442;-57
2021/12/25 12:04:21;;;;;;;4.22;3.15;;;;;;;21.02;17.30;98757.38;5116079;28;20165;-58
2021/12/25 12:06:47;;;;;;;4.10;3.30;;;;;;;21.03;17.35;98750.66;5101543;28;20028;-58
2021/12/25 12:09:16;;;;;;;3.90;3.00;;;;;;;21.03;17.45;98761.66;5126385;28;20038;-57
2021/12/25 12:11:46;;;;;;;4.00;2.85;;;;;;;21.04;17.39;98754.97;5100435;28;20070;-57
2021/12/25 12:14:22;;;;;;;4.50;3.10;;;;;;;21.04;17.48;98754.19;5090749;28;20031;-58
2021/12/25 12:16:52;;;;;;;3.55;2.80;;;;;;;21.03;17.35;98755.41;5090362;28;20051;-55
2021/12/25 12:19:40;;;;;;;3.90;3.40;;;;;;;21.04;17.30;98748.69;5093091;28;20403;-57
2021/12/25 12:27:48;;;;;;;3.88;3.03;;;;;;;21.04;17.48;98724.72;5094971;28;20028;-57
2021/12/25 12:30:33;;;;;;;4.13;3.10;;;;;;;21.04;17.42;98741.22;5117608;27;20156;-57
2021/12/25 12:33:00;;;;;;;4.20;2.72;;;;;;;21.02;17.46;98731.88;5116937;27;20062;-59
2021/12/25 12:35:45;;;;;;;3.67;2.88;;;;;;;21.01;17.42;98727.59;5099985;28;20042;-57
2021/12/25 12:38:35;;;;;;;3.75;3.17;;;;;;;21.01;17.42;98728.38;5105734;27;20031;-57
2021/12/25 12:41:32;;;;;;;4.05;3.20;;;;;;;21.03;17.43;98725.91;5102936;28;20066;-57
2021/12/25 12:44:24;;;;;;;4.55;3.20;;;;;;;21.03;17.38;98733.41;5111461;27;20036;-57
2021/12/25 12:46:56;;;;;;;3.55;2.75;;;;;;;21.01;17.33;98731.13;5098563;28;20039;-58
2021/12/25 12:49:22;;;;;;;4.35;3.35;;;;;;;20.99;17.42;98728.06;5093967;28;20110;-58
2021/12/25 12:52:22;;;;;;;4.45;3.20;;;;;;;21.02;17.39;98727.13;5109581;28;20475;-55
2021/12/25 12:54:51;;;;;;;4.13;3.00;;;;;;;20.99;17.33;98733.56;5069353;28;20531;-58
2021/12/25 12:57:24;;;;;;;4.20;3.00;;;;;;;20.99;17.49;98733.56;5109462;28;20055;-57
2021/12/25 12:59:55;;;;;;;4.43;3.13;;;;;;;21.00;17.42;98726.84;5095928;27;20066;-56
2021/12/25 13:02:22;;;;;;;4.22;3.08;;;;;;;21.01;17.61;98728.38;5103359;27;20050;-57